Terminal Aerodrome Forecast
Issued by NWS

Home | Current Version | Previous Version | Text Only | Print | Product List | Glossary On
Versions: 1 2 3 4 5 6 7 8 9 10 11 12 13
000
FTUS43 KOAX 252320
TAFBFF
TAF
KBFF 252320Z 2600/2624 02010KT P6SM VCTS BKN080CB
     FM260300 02008KT P6SM BKN080
     FM260600 33006KT P6SM BKN040
     FM261500 13012G23KT P6SM BKN060=

USA.gov is the U.S. government's official web portal to all federal, state and local government web resources and services.